Time;durP1;ratioP1;P1;durP2;ratioP2;P2;SDS_P1;SDS_P2;PMS_P1;PMS_P2;Temp;Humidity;BMP_temperature;BMP_pressure;BME280_temperature;BME280_humidity;BME280_pressure;Samples;Min_cycle;Max_cycle;Signal;HPM_P1;HPM_P2
2023/08/08 00:00:47;;;;;;;1.97;1.63;;;12.70;99.90;;;;;;4957558;28;20225;-28
2023/08/08 00:03:13;;;;;;;2.20;1.40;;;12.80;99.90;;;;;;4965586;28;20276;-27
2023/08/08 00:05:39;;;;;;;2.93;1.53;;;12.80;99.90;;;;;;4972785;28;20263;-27
2023/08/08 00:08:06;;;;;;;2.47;1.70;;;12.90;99.90;;;;;;4956962;28;20319;-27
2023/08/08 00:10:32;;;;;;;2.33;1.50;;;12.90;99.90;;;;;;4973738;28;20200;-27
2023/08/08 00:12:58;;;;;;;4.17;1.97;;;12.90;99.90;;;;;;4958464;28;20239;-28
2023/08/08 00:15:24;;;;;;;2.00;1.80;;;12.90;99.90;;;;;;4973275;28;20275;-28
2023/08/08 00:17:49;;;;;;;2.77;1.70;;;12.90;99.90;;;;;;4963932;28;20184;-27
2023/08/08 00:20:15;;;;;;;1.80;1.60;;;12.90;99.90;;;;;;4959106;28;20215;-28
2023/08/08 00:22:41;;;;;;;2.50;1.93;;;13.00;99.90;;;;;;4956723;28;20188;-27
2023/08/08 00:25:08;;;;;;;1.97;1.50;;;13.00;99.90;;;;;;4956398;28;20188;-27
2023/08/08 00:27:34;;;;;;;1.50;1.40;;;13.10;99.90;;;;;;4966558;28;20188;-28
2023/08/08 00:30:01;;;;;;;3.03;1.87;;;13.10;99.90;;;;;;4956003;28;20215;-28
2023/08/08 00:32:27;;;;;;;3.63;1.90;;;13.10;99.90;;;;;;4954312;28;20221;-28
2023/08/08 00:34:52;;;;;;;3.83;1.90;;;13.10;99.90;;;;;;4969105;28;20176;-27
2023/08/08 00:37:18;;;;;;;3.10;1.80;;;13.10;99.90;;;;;;4959014;28;20204;-28
2023/08/08 00:39:46;;;;;;;2.37;1.40;;;13.00;99.90;;;;;;4961027;28;20211;-28
2023/08/08 00:42:13;;;;;;;1.63;1.53;;;13.10;99.90;;;;;;4954301;28;20173;-27
2023/08/08 00:44:40;;;;;;;2.30;1.77;;;13.00;99.90;;;;;;4971687;28;20275;-28
2023/08/08 00:47:08;;;;;;;3.60;1.93;;;13.00;99.90;;;;;;4955526;28;20221;-28
2023/08/08 00:49:35;;;;;;;2.40;1.70;;;13.00;99.90;;;;;;4970779;28;20240;-28
2023/08/08 00:52:01;;;;;;;1.93;1.60;;;13.10;99.90;;;;;;4950527;28;20216;-28
2023/08/08 00:54:27;;;;;;;1.60;1.50;;;13.10;99.90;;;;;;4958419;28;20271;-29
2023/08/08 00:56:53;;;;;;;2.10;1.90;;;13.10;99.90;;;;;;4957772;28;20179;-27
2023/08/08 00:59:23;;;;;;;1.90;1.70;;;13.20;99.90;;;;;;4954503;28;20236;-28
2023/08/08 01:01:49;;;;;;;1.77;1.53;;;13.20;99.90;;;;;;4952308;28;20216;-29
2023/08/08 01:04:16;;;;;;;2.30;1.60;;;13.30;99.90;;;;;;4954943;28;20185;-28
2023/08/08 01:07:12;;;;;;;2.33;1.70;;;13.30;99.90;;;;;;4956504;28;20251;-28
2023/08/08 01:09:48;;;;;;;1.93;1.60;;;13.30;99.90;;;;;;4955267;28;20312;-28
2023/08/08 01:12:15;;;;;;;1.87;1.63;;;13.30;99.90;;;;;;4953766;28;20208;-28
2023/08/08 01:14:43;;;;;;;1.90;1.60;;;13.30;99.90;;;;;;4948869;28;20181;-28
2023/08/08 01:17:10;;;;;;;1.37;1.20;;;13.30;99.90;;;;;;4955574;28;20196;-28
2023/08/08 01:19:37;;;;;;;3.63;1.70;;;13.40;99.90;;;;;;4961720;28;20196;-28
2023/08/08 01:22:06;;;;;;;1.90;1.77;;;13.30;99.90;;;;;;4953431;28;20185;-27
2023/08/08 01:24:36;;;;;;;2.10;1.60;;;13.30;99.90;;;;;;4970511;28;20203;-27
2023/08/08 01:27:04;;;;;;;4.20;1.77;;;13.30;99.90;;;;;;4956803;28;20189;-27
2023/08/08 01:29:30;;;;;;;1.90;1.50;;;13.30;99.90;;;;;;4956214;28;20193;-26
2023/08/08 01:31:56;;;;;;;1.40;1.30;;;13.30;99.90;;;;;;4956066;28;20204;-28
2023/08/08 01:34:22;;;;;;;1.97;1.47;;;13.20;99.90;;;;;;4953072;29;20181;-28
2023/08/08 01:36:52;;;;;;;1.70;1.60;;;13.20;99.90;;;;;;4971422;28;20200;-28
2023/08/08 01:39:25;;;;;;;2.33;2.00;;;13.20;99.90;;;;;;4962829;28;20318;-28
2023/08/08 01:41:54;;;;;;;2.23;1.70;;;13.20;99.90;;;;;;4953628;28;20227;-28
2023/08/08 01:44:21;;;;;;;2.03;1.83;;;13.10;99.90;;;;;;4956054;28;20275;-28
2023/08/08 01:46:47;;;;;;;2.60;1.80;;;13.10;99.90;;;;;;4955272;28;20181;-27
2023/08/08 01:49:13;;;;;;;2.23;1.70;;;13.10;99.90;;;;;;4963757;28;20196;-27
2023/08/08 01:51:39;;;;;;;2.00;1.60;;;13.00;99.90;;;;;;4955270;28;20220;-27
2023/08/08 01:54:08;;;;;;;1.93;1.60;;;12.90;99.90;;;;;;4954909;28;20191;-27
2023/08/08 01:56:34;;;;;;;2.53;1.93;;;12.90;99.90;;;;;;4952524;28;20176;-27
2023/08/08 01:59:00;;;;;;;2.10;1.80;;;12.90;99.90;;;;;;4956117;28;20176;-28
2023/08/08 02:01:26;;;;;;;1.70;1.60;;;12.80;99.90;;;;;;4971254;28;20231;-28
2023/08/08 02:03:52;;;;;;;3.03;1.80;;;12.80;99.90;;;;;;4974488;28;20183;-29
2023/08/08 02:06:18;;;;;;;2.13;1.70;;;12.90;99.90;;;;;;4955381;28;20188;-27
2023/08/08 02:08:45;;;;;;;2.33;1.50;;;12.90;99.90;;;;;;4954136;28;20260;-28
2023/08/08 02:11:11;;;;;;;2.37;1.50;;;12.90;99.90;;;;;;4970964;28;20291;-28
2023/08/08 02:13:37;;;;;;;2.23;1.60;;;12.90;99.90;;;;;;4955283;28;20245;-27
2023/08/08 02:16:03;;;;;;;1.97;1.53;;;12.90;99.90;;;;;;4967495;28;20183;-28
2023/08/08 02:18:30;;;;;;;4.27;1.80;;;12.90;99.90;;;;;;4973245;28;20180;-27
2023/08/08 02:20:57;;;;;;;1.63;1.53;;;12.90;99.90;;;;;;4947913;28;20224;-28
2023/08/08 02:23:22;;;;;;;2.00;1.50;;;12.90;99.90;;;;;;4962642;28;20194;-27
2023/08/08 02:25:48;;;;;;;3.47;1.60;;;13.00;99.90;;;;;;4968827;28;20200;-28
2023/08/08 02:28:15;;;;;;;2.83;1.50;;;13.00;99.90;;;;;;4971409;28;20188;-28
2023/08/08 02:30:42;;;;;;;2.90;1.80;;;12.90;99.90;;;;;;4964635;28;20211;-28
2023/08/08 02:33:09;;;;;;;1.60;1.50;;;13.00;99.90;;;;;;4982897;28;20215;-27
2023/08/08 02:35:37;;;;;;;3.23;1.40;;;13.00;99.90;;;;;;4964568;28;20180;-29
2023/08/08 02:38:03;;;;;;;2.80;1.67;;;13.00;99.90;;;;;;4971399;28;20200;-27
2023/08/08 02:40:29;;;;;;;3.40;1.63;;;13.00;99.90;;;;;;4960701;28;20226;-28
2023/08/08 02:42:56;;;;;;;1.97;1.77;;;13.00;99.90;;;;;;4954790;28;20191;-28
2023/08/08 02:45:22;;;;;;;4.50;1.60;;;13.10;99.90;;;;;;4961397;28;20191;-28
2023/08/08 02:47:48;;;;;;;3.33;2.10;;;13.10;99.90;;;;;;4955232;28;20188;-27
2023/08/08 02:50:13;;;;;;;2.20;1.80;;;13.00;99.90;;;;;;4954342;28;20204;-28
2023/08/08 02:52:39;;;;;;;1.90;1.50;;;13.00;99.90;;;;;;4952437;28;20287;-28
2023/08/08 02:55:06;;;;;;;1.73;1.53;;;13.00;99.90;;;;;;4954820;28;20173;-28
2023/08/08 02:57:32;;;;;;;1.97;1.80;;;13.00;99.90;;;;;;4970564;28;20176;-28
2023/08/08 02:59:58;;;;;;;2.73;1.83;;;13.00;99.90;;;;;;4958485;28;20468;-28
2023/08/08 03:02:25;;;;;;;2.17;1.63;;;12.90;99.90;;;;;;4990355;28;20191;-28
2023/08/08 03:04:51;;;;;;;3.47;1.57;;;12.80;99.90;;;;;;4974021;28;20273;-28
2023/08/08 03:07:18;;;;;;;2.83;1.80;;;12.80;99.90;;;;;;4950905;28;20689;-28
2023/08/08 03:09:44;;;;;;;2.10;1.90;;;12.80;99.90;;;;;;4954665;28;20180;-27
2023/08/08 03:12:11;;;;;;;2.87;1.67;;;12.80;99.90;;;;;;4954205;28;20236;-27
2023/08/08 03:14:38;;;;;;;3.23;1.93;;;12.80;99.90;;;;;;4969235;28;20184;-28
2023/08/08 03:17:04;;;;;;;1.70;1.53;;;12.80;99.90;;;;;;4954755;28;20184;-27
2023/08/08 03:19:31;;;;;;;2.10;1.53;;;12.90;99.90;;;;;;4954871;28;20183;-28
2023/08/08 03:21:59;;;;;;;2.57;1.53;;;12.80;99.90;;;;;;4954325;28;20220;-29
2023/08/08 03:24:25;;;;;;;3.13;1.70;;;12.90;99.90;;;;;;4969211;28;20190;-28
2023/08/08 03:26:51;;;;;;;2.57;1.60;;;12.80;99.90;;;;;;4969589;28;20198;-28
2023/08/08 03:29:17;;;;;;;4.37;1.80;;;12.80;99.90;;;;;;4954817;28;20177;-27
2023/08/08 03:31:47;;;;;;;2.07;1.83;;;12.80;99.90;;;;;;4972803;28;20211;-27
2023/08/08 03:34:13;;;;;;;3.43;1.97;;;12.70;99.90;;;;;;4966604;28;20181;-29
2023/08/08 03:36:41;;;;;;;2.03;1.83;;;12.70;99.90;;;;;;4981473;28;20239;-28
2023/08/08 03:39:08;;;;;;;2.07;1.60;;;12.60;99.90;;;;;;4959199;28;20186;-27
2023/08/08 03:41:34;;;;;;;3.13;1.60;;;12.60;99.90;;;;;;4958771;28;20203;-28
2023/08/08 03:44:02;;;;;;;3.80;1.83;;;12.60;99.90;;;;;;4947346;28;20213;-28
2023/08/08 03:46:29;;;;;;;5.30;1.80;;;12.50;99.90;;;;;;4950854;28;20191;-28
2023/08/08 03:48:55;;;;;;;1.60;1.50;;;12.50;99.90;;;;;;4986164;28;20196;-28
2023/08/08 03:51:21;;;;;;;4.33;1.60;;;12.50;99.90;;;;;;4958115;28;20207;-28
2023/08/08 03:53:47;;;;;;;1.60;1.50;;;12.50;99.90;;;;;;4967925;28;20176;-28
2023/08/08 03:56:13;;;;;;;2.17;1.87;;;12.50;99.90;;;;;;4970959;28;20210;-28
2023/08/08 03:58:39;;;;;;;1.77;1.60;;;12.50;99.90;;;;;;4958137;28;20192;-28
2023/08/08 04:01:05;;;;;;;3.03;1.80;;;12.50;99.90;;;;;;4966858;28;20219;-27
2023/08/08 04:03:31;;;;;;;2.90;1.80;;;12.50;99.90;;;;;;4973346;28;20307;-27
2023/08/08 04:05:57;;;;;;;3.13;1.93;;;12.40;99.90;;;;;;4966171;28;20211;-27
2023/08/08 04:08:23;;;;;;;3.63;2.00;;;12.30;99.90;;;;;;4958243;28;20219;-27
2023/08/08 04:10:49;;;;;;;2.40;2.10;;;12.30;99.90;;;;;;4963115;28;20211;-27
2023/08/08 04:13:15;;;;;;;2.40;1.90;;;12.30;99.90;;;;;;4954823;28;20208;-28
2023/08/08 04:15:41;;;;;;;1.80;1.70;;;12.30;99.90;;;;;;4963690;28;20183;-26
2023/08/08 04:18:07;;;;;;;2.93;1.60;;;12.30;99.90;;;;;;4977036;28;20198;-27
2023/08/08 04:20:34;;;;;;;1.87;1.77;;;12.30;99.90;;;;;;4956443;28;20239;-28
2023/08/08 04:23:00;;;;;;;2.43;2.20;;;12.20;99.90;;;;;;4973528;28;20190;-27
2023/08/08 04:25:27;;;;;;;2.50;1.70;;;12.20;99.90;;;;;;4954420;28;20196;-28
2023/08/08 04:27:53;;;;;;;2.93;2.00;;;12.20;99.90;;;;;;4957518;28;20192;-27
2023/08/08 04:30:20;;;;;;;3.13;2.00;;;12.20;99.90;;;;;;4968646;28;20208;-29
2023/08/08 04:32:47;;;;;;;2.23;1.80;;;12.20;99.90;;;;;;4950444;28;20319;-27
2023/08/08 04:35:14;;;;;;;2.87;1.93;;;12.20;99.90;;;;;;4970202;28;20180;-28
2023/08/08 04:37:43;;;;;;;1.90;1.70;;;12.20;99.90;;;;;;4953747;28;20192;-27
2023/08/08 04:40:10;;;;;;;2.10;1.90;;;12.20;99.90;;;;;;4970048;28;20209;-28
2023/08/08 04:42:42;;;;;;;3.40;2.00;;;12.20;99.90;;;;;;4955263;28;20214;-27
2023/08/08 04:45:13;;;;;;;2.93;1.80;;;12.10;99.90;;;;;;4964662;28;20203;-28
2023/08/08 04:47:42;;;;;;;3.00;2.47;;;12.10;99.90;;;;;;4954215;28;20200;-29
2023/08/08 04:50:10;;;;;;;3.43;2.13;;;12.10;99.90;;;;;;4968878;28;20267;-27
2023/08/08 04:52:36;;;;;;;4.57;2.30;;;12.00;99.90;;;;;;4960244;28;20219;-28
2023/08/08 04:55:02;;;;;;;4.03;2.23;;;12.10;99.90;;;;;;4969153;28;20700;-28
2023/08/08 04:57:27;;;;;;;3.97;1.93;;;12.10;99.90;;;;;;4954378;28;20186;-28
2023/08/08 04:59:57;;;;;;;2.50;1.80;;;12.10;99.90;;;;;;4951391;28;20217;-28
2023/08/08 05:02:26;;;;;;;3.27;2.03;;;12.20;99.90;;;;;;4979175;28;20305;-27
2023/08/08 05:04:52;;;;;;;4.00;1.80;;;12.30;99.90;;;;;;4958720;28;20199;-27
2023/08/08 05:07:18;;;;;;;2.57;2.13;;;12.30;99.90;;;;;;4976453;28;20187;-28
2023/08/08 05:09:43;;;;;;;2.20;2.00;;;12.40;99.90;;;;;;4955284;28;20192;-28
2023/08/08 05:12:09;;;;;;;3.20;1.70;;;12.40;99.90;;;;;;4956201;28;20221;-28
2023/08/08 05:14:35;;;;;;;2.27;1.60;;;12.40;99.90;;;;;;4956388;28;20191;-28
2023/08/08 05:17:02;;;;;;;2.00;1.80;;;12.50;99.90;;;;;;4975810;28;20210;-28
2023/08/08 05:19:28;;;;;;;2.40;1.67;;;12.50;99.90;;;;;;4959975;28;20181;-28
2023/08/08 05:21:54;;;;;;;3.00;1.60;;;12.60;99.90;;;;;;4971804;28;20199;-27
2023/08/08 05:24:20;;;;;;;2.27;1.70;;;12.70;99.90;;;;;;4954933;28;20194;-27
2023/08/08 05:26:46;;;;;;;1.70;1.53;;;12.70;99.90;;;;;;4955395;28;20184;-28
2023/08/08 05:29:12;;;;;;;3.50;1.63;;;12.70;99.90;;;;;;4972111;28;20192;-28
2023/08/08 05:31:39;;;;;;;2.20;1.67;;;12.70;99.90;;;;;;4955940;28;20220;-28
2023/08/08 05:34:04;;;;;;;2.40;1.57;;;12.70;99.90;;;;;;4956895;28;20194;-28
2023/08/08 05:36:30;;;;;;;1.93;1.70;;;12.80;99.90;;;;;;4952880;28;20178;-28
2023/08/08 05:38:57;;;;;;;1.77;1.37;;;12.80;99.90;;;;;;4954363;28;20191;-30
2023/08/08 05:41:23;;;;;;;3.70;1.80;;;12.90;99.90;;;;;;4967634;28;20294;-28
2023/08/08 05:43:50;;;;;;;3.07;1.60;;;13.00;99.90;;;;;;4954990;28;20231;-27
2023/08/08 05:46:15;;;;;;;1.87;1.60;;;13.10;99.90;;;;;;4973522;28;20275;-27
2023/08/08 05:48:43;;;;;;;2.13;1.67;;;13.30;99.90;;;;;;4998928;28;20228;-28
2023/08/08 05:51:09;;;;;;;2.37;1.50;;;13.40;99.90;;;;;;4956371;28;20204;-28
2023/08/08 05:53:36;;;;;;;1.83;1.60;;;13.50;99.90;;;;;;4970458;28;20199;-29
2023/08/08 05:56:02;;;;;;;1.90;1.70;;;13.60;99.90;;;;;;4952346;28;20271;-28
2023/08/08 05:58:28;;;;;;;4.80;1.60;;;13.70;99.90;;;;;;4955964;28;20244;-28
2023/08/08 06:00:54;;;;;;;4.40;1.57;;;13.80;99.90;;;;;;4970271;28;20217;-28
2023/08/08 06:03:20;;;;;;;1.53;1.43;;;14.00;99.90;;;;;;4966073;28;20561;-28
2023/08/08 06:05:46;;;;;;;2.00;1.50;;;14.10;99.90;;;;;;4966092;28;20184;-29
2023/08/08 06:08:13;;;;;;;2.17;1.53;;;14.20;99.90;;;;;;4955871;28;20199;-28
2023/08/08 06:10:39;;;;;;;1.80;1.30;;;14.30;99.90;;;;;;4971237;28;20497;-28
2023/08/08 06:13:05;;;;;;;2.80;1.50;;;14.40;99.90;;;;;;4968751;28;20299;-29
2023/08/08 06:15:31;;;;;;;4.07;1.40;;;14.50;99.90;;;;;;4945940;28;20181;-29
2023/08/08 06:17:57;;;;;;;3.60;1.40;;;14.60;99.90;;;;;;4970657;28;20184;-29
2023/08/08 06:20:23;;;;;;;4.13;1.30;;;14.70;99.90;;;;;;4980236;28;20232;-28
2023/08/08 06:22:49;;;;;;;1.50;1.20;;;14.80;99.90;;;;;;4987642;28;20196;-29
2023/08/08 06:25:15;;;;;;;2.17;1.50;;;14.90;99.90;;;;;;4954733;28;20181;-28
2023/08/08 06:27:41;;;;;;;4.57;1.70;;;15.00;99.90;;;;;;4955141;28;20276;-28
2023/08/08 06:30:08;;;;;;;2.27;1.40;;;15.10;99.90;;;;;;4955992;28;20247;-28
2023/08/08 06:32:34;;;;;;;1.70;1.50;;;15.20;99.90;;;;;;4955389;28;20220;-28
2023/08/08 06:35:00;;;;;;;1.53;1.43;;;15.30;99.90;;;;;;4968021;28;20234;-28
2023/08/08 06:37:26;;;;;;;2.07;1.50;;;15.40;99.90;;;;;;4982989;28;20185;-28
2023/08/08 06:39:52;;;;;;;1.50;1.40;;;15.50;99.90;;;;;;4954475;28;20299;-28
2023/08/08 06:42:17;;;;;;;2.40;1.10;;;15.60;99.90;;;;;;4957758;28;20271;-28
2023/08/08 06:44:56;;;;;;;1.80;1.27;;;15.70;99.90;;;;;;4957470;28;20184;-28
2023/08/08 06:47:23;;;;;;;3.37;1.53;;;15.70;99.90;;;;;;4962163;28;20265;-28
2023/08/08 06:49:49;;;;;;;2.40;1.43;;;15.80;99.90;;;;;;4958140;28;20209;-29
2023/08/08 06:52:15;;;;;;;3.93;1.43;;;15.80;99.90;;;;;;4960600;28;20200;-28
2023/08/08 06:54:41;;;;;;;1.37;1.17;;;15.90;99.90;;;;;;4976413;28;20181;-28
2023/08/08 06:57:07;;;;;;;4.67;1.73;;;16.00;99.90;;;;;;4970876;28;20238;-28
2023/08/08 06:59:33;;;;;;;3.47;1.60;;;16.20;99.90;;;;;;4961818;28;20176;-28
2023/08/08 07:02:00;;;;;;;2.40;1.30;;;16.40;99.90;;;;;;4959297;28;20204;-28
2023/08/08 07:04:27;;;;;;;2.23;1.50;;;16.60;99.90;;;;;;4977324;28;20196;-28
2023/08/08 07:06:53;;;;;;;2.30;1.50;;;16.80;99.90;;;;;;4958080;28;20271;-29
2023/08/08 07:09:19;;;;;;;3.28;1.60;;;17.00;99.90;;;;;;4966945;28;20439;-28
2023/08/08 07:11:45;;;;;;;1.58;1.42;;;17.00;99.90;;;;;;4952658;28;20270;-28
2023/08/08 07:14:10;;;;;;;2.15;1.48;;;17.10;99.90;;;;;;4974139;28;20195;-28
2023/08/08 07:16:36;;;;;;;4.13;2.10;;;17.20;99.90;;;;;;4959925;28;20177;-28
2023/08/08 07:19:02;;;;;;;3.03;2.53;;;17.30;99.90;;;;;;4957855;28;20188;-28
2023/08/08 07:21:29;;;;;;;3.92;2.58;;;17.50;99.90;;;;;;4970663;28;20212;-27
2023/08/08 07:23:55;;;;;;;5.18;2.60;;;17.60;99.90;;;;;;4950803;28;20188;-28
2023/08/08 07:26:22;;;;;;;3.28;2.33;;;17.70;99.90;;;;;;4955228;28;20320;-29
2023/08/08 07:28:48;;;;;;;3.88;2.58;;;17.90;99.90;;;;;;4959179;28;20181;-29
2023/08/08 07:31:15;;;;;;;3.58;2.10;;;18.00;99.90;;;;;;4946445;28;20200;-29
2023/08/08 07:33:42;;;;;;;3.53;1.70;;;18.10;99.90;;;;;;4953561;28;20263;-29
2023/08/08 07:36:09;;;;;;;2.15;1.00;;;18.10;99.90;;;;;;4962078;28;20181;-29
2023/08/08 07:38:36;;;;;;;2.03;1.40;;;17.90;99.90;;;;;;4959017;28;20177;-28
2023/08/08 07:41:02;;;;;;;2.47;1.30;;;17.90;99.90;;;;;;4967504;28;20205;-29
2023/08/08 07:43:28;;;;;;;1.55;1.38;;;18.00;99.90;;;;;;4949430;28;20640;-28
2023/08/08 07:45:54;;;;;;;1.60;1.13;;;18.00;99.90;;;;;;4969481;28;20204;-29
2023/08/08 07:48:20;;;;;;;2.20;1.30;;;18.00;99.90;;;;;;4950003;28;20212;-29
2023/08/08 07:50:46;;;;;;;1.27;1.15;;;18.10;99.90;;;;;;4952614;28;20234;-29
2023/08/08 07:53:13;;;;;;;1.98;1.30;;;18.20;99.90;;;;;;4952720;28;20295;-28
2023/08/08 07:55:39;;;;;;;1.30;1.20;;;18.20;99.90;;;;;;4960754;28;20205;-28
2023/08/08 07:58:06;;;;;;;2.85;1.25;;;18.30;99.90;;;;;;4969739;28;20189;-28
2023/08/08 08:00:32;;;;;;;3.83;1.50;;;18.40;99.90;;;;;;4955792;28;20213;-29
2023/08/08 08:03:04;;;;;;;2.78;1.30;;;18.50;99.90;;;;;;4955000;28;20180;-29
2023/08/08 08:05:34;;;;;;;1.65;1.10;;;18.70;99.90;;;;;;4990260;28;20184;-29
2023/08/08 08:08:06;;;;;;;2.65;1.50;;;18.70;99.90;;;;;;4968497;28;20243;-28
2023/08/08 08:10:32;;;;;;;2.72;1.45;;;18.80;99.90;;;;;;4962185;28;20238;-29
2023/08/08 08:12:58;;;;;;;1.60;1.42;;;18.70;99.90;;;;;;4953648;28;20252;-29
2023/08/08 08:15:28;;;;;;;1.58;1.30;;;18.70;99.90;;;;;;4945296;28;20252;-28
2023/08/08 08:17:55;;;;;;;4.32;1.65;;;18.60;99.90;;;;;;4964566;28;20187;-29
2023/08/08 08:20:27;;;;;;;2.85;1.45;;;18.50;99.90;;;;;;4966344;28;20201;-28
2023/08/08 08:22:55;;;;;;;2.58;1.65;;;18.60;99.90;;;;;;4967045;28;20188;-29
2023/08/08 08:25:21;;;;;;;1.60;1.30;;;18.60;99.90;;;;;;4956162;28;20261;-29
2023/08/08 08:27:49;;;;;;;1.75;1.30;;;18.70;99.90;;;;;;4955389;28;20220;-29
2023/08/08 08:30:14;;;;;;;2.88;1.50;;;18.70;99.90;;;;;;4968087;28;20204;-28
2023/08/08 08:32:41;;;;;;;2.63;1.75;;;18.80;99.90;;;;;;4971700;28;20219;-29
2023/08/08 08:35:08;;;;;;;2.83;1.20;;;18.70;99.90;;;;;;4952528;28;20189;-29
2023/08/08 08:37:35;;;;;;;3.15;1.60;;;18.70;99.90;;;;;;4955652;28;20243;-28
2023/08/08 08:40:01;;;;;;;2.45;1.33;;;18.80;99.90;;;;;;4971457;28;20204;-29
2023/08/08 08:42:28;;;;;;;2.22;1.40;;;18.90;99.90;;;;;;4951497;28;20272;-29
2023/08/08 08:44:58;;;;;;;1.90;1.40;;;18.90;99.90;;;;;;4955235;28;20304;-29
2023/08/08 08:47:25;;;;;;;2.63;1.50;;;19.00;99.90;;;;;;4965046;28;20200;-29
2023/08/08 08:49:55;;;;;;;1.60;1.50;;;19.10;99.90;;;;;;4955018;28;20211;-28
2023/08/08 08:52:22;;;;;;;1.45;1.35;;;19.10;99.90;;;;;;4968540;28;20216;-29
2023/08/08 08:54:48;;;;;;;2.08;1.52;;;19.10;99.90;;;;;;4963821;28;20227;-29
2023/08/08 08:57:15;;;;;;;2.28;1.30;;;19.20;99.90;;;;;;4963014;28;20181;-29
2023/08/08 08:59:41;;;;;;;3.10;1.48;;;19.30;99.90;;;;;;4963801;28;20196;-29
2023/08/08 09:02:07;;;;;;;1.83;1.33;;;19.50;99.90;;;;;;4964416;28;20205;-29
2023/08/08 09:04:34;;;;;;;1.88;1.55;;;19.80;99.90;;;;;;4972602;28;20215;-28
2023/08/08 09:07:01;;;;;;;3.78;1.73;;;19.70;99.90;;;;;;4955889;28;20196;-29
2023/08/08 09:09:34;;;;;;;2.05;1.40;;;19.70;99.90;;;;;;4954191;28;20177;-29
2023/08/08 09:12:03;;;;;;;1.40;1.20;;;19.90;99.90;;;;;;4961275;28;20235;-29
2023/08/08 09:14:29;;;;;;;2.58;1.30;;;19.80;99.90;;;;;;4956764;28;20181;-29
2023/08/08 09:16:56;;;;;;;1.58;1.27;;;19.80;99.90;;;;;;4949375;28;20189;-29
2023/08/08 09:19:23;;;;;;;2.28;1.58;;;19.90;99.90;;;;;;4957474;28;20201;-29
2023/08/08 09:21:50;;;;;;;2.60;1.55;;;20.00;99.90;;;;;;4970860;28;20239;-29
2023/08/08 09:24:16;;;;;;;3.28;1.50;;;20.00;99.90;;;;;;4953473;28;20189;-29
2023/08/08 09:26:43;;;;;;;1.88;1.65;;;20.10;99.90;;;;;;4967522;28;20204;-29
2023/08/08 09:29:11;;;;;;;2.22;1.50;;;20.30;99.90;;;;;;4967110;28;20181;-28
2023/08/08 09:31:36;;;;;;;1.58;1.30;;;20.30;99.90;;;;;;4955537;28;20208;-29
2023/08/08 09:34:04;;;;;;;1.75;1.38;;;20.30;99.90;;;;;;4957470;28;20185;-29
2023/08/08 09:36:30;;;;;;;1.45;1.33;;;20.30;99.90;;;;;;4967561;28;20276;-29
2023/08/08 09:38:56;;;;;;;1.38;1.27;;;20.30;99.90;;;;;;4968407;28;20236;-29
2023/08/08 09:41:23;;;;;;;2.78;1.38;;;20.30;99.90;;;;;;4955334;28;20251;-29
2023/08/08 09:43:53;;;;;;;4.30;1.73;;;20.30;99.90;;;;;;4953086;28;20182;-29
2023/08/08 09:46:20;;;;;;;2.13;1.40;;;20.30;99.90;;;;;;4950628;28;20184;-29
2023/08/08 09:48:47;;;;;;;1.73;1.38;;;20.50;99.90;;;;;;4967074;28;20185;-29
2023/08/08 09:51:14;;;;;;;3.28;1.65;;;20.50;99.90;;;;;;4954874;28;20213;-29
2023/08/08 09:53:40;;;;;;;1.38;1.25;;;20.50;99.90;;;;;;4954818;28;20204;-29
2023/08/08 09:56:07;;;;;;;2.33;1.50;;;20.60;99.90;;;;;;4973350;28;20227;-29
2023/08/08 09:58:33;;;;;;;2.45;1.58;;;20.50;99.90;;;;;;4955019;29;20186;-29
2023/08/08 10:01:00;;;;;;;1.77;1.60;;;20.50;99.90;;;;;;4955692;28;20220;-29
2023/08/08 10:03:26;;;;;;;2.75;1.42;;;20.50;99.90;;;;;;4969291;28;20243;-29
2023/08/08 10:05:52;;;;;;;2.40;1.60;;;20.70;99.90;;;;;;4972800;28;20185;-29
2023/08/08 10:08:19;;;;;;;2.85;1.50;;;21.00;99.90;;;;;;4957747;28;20193;-29
2023/08/08 10:10:47;;;;;;;3.22;1.70;;;21.10;99.90;;;;;;4960475;28;20283;-29
2023/08/08 10:13:23;;;;;;;3.75;1.60;;;21.10;99.90;;;;;;4972957;28;20295;-30
2023/08/08 10:15:50;;;;;;;3.25;1.50;;;21.10;99.90;;;;;;4970304;28;20173;-29
2023/08/08 10:18:17;;;;;;;3.00;1.50;;;21.20;99.90;;;;;;4958588;28;20195;-29
2023/08/08 10:20:53;;;;;;;3.05;1.60;;;21.30;99.90;;;;;;4967484;28;20200;-29
2023/08/08 10:23:19;;;;;;;3.95;1.88;;;21.40;99.90;;;;;;4964582;28;20206;-29
2023/08/08 10:25:48;;;;;;;2.08;1.60;;;21.40;99.90;;;;;;4962921;28;20191;-30
2023/08/08 10:28:18;;;;;;;1.50;1.35;;;21.20;99.90;;;;;;4955926;28;20193;-29
2023/08/08 10:30:55;;;;;;;1.65;1.35;;;21.30;99.90;;;;;;4951982;28;20208;-29
2023/08/08 10:33:23;;;;;;;3.85;1.63;;;21.50;99.90;;;;;;4974015;28;20203;-29
2023/08/08 10:36:03;;;;;;;2.38;1.42;;;21.60;99.90;;;;;;4972785;28;20179;-29
2023/08/08 10:38:50;;;;;;;2.92;1.42;;;21.70;99.90;;;;;;4964236;28;20180;-29
2023/08/08 10:41:18;;;;;;;2.35;1.45;;;21.70;99.90;;;;;;4969878;28;20214;-29
2023/08/08 10:43:53;;;;;;;2.83;1.60;;;21.70;99.90;;;;;;4970987;28;20691;-29
2023/08/08 10:46:27;;;;;;;2.42;1.40;;;21.80;99.90;;;;;;4954071;28;20185;-29
2023/08/08 10:48:56;;;;;;;2.35;1.45;;;21.90;99.90;;;;;;4956179;28;20188;-28
2023/08/08 10:51:22;;;;;;;1.70;1.50;;;22.00;99.90;;;;;;4954871;28;20215;-29
2023/08/08 10:53:51;;;;;;;1.73;1.52;;;22.20;99.90;;;;;;4954503;28;20208;-29
2023/08/08 10:56:19;;;;;;;1.73;1.25;;;22.30;99.90;;;;;;4965179;28;20181;-29
2023/08/08 10:58:49;;;;;;;2.05;1.30;;;22.30;99.90;;;;;;4954827;28;20177;-29
2023/08/08 11:01:16;;;;;;;2.17;1.58;;;22.30;99.90;;;;;;4960386;28;20216;-30
2023/08/08 11:03:43;;;;;;;2.40;1.63;;;22.60;99.90;;;;;;4955127;28;20236;-29
2023/08/08 11:06:10;;;;;;;2.70;1.63;;;23.00;99.90;;;;;;4952564;28;20217;-30
2023/08/08 11:08:38;;;;;;;2.22;1.67;;;23.30;99.90;;;;;;4955836;28;20188;-29
2023/08/08 11:11:06;;;;;;;2.45;1.50;;;23.50;99.90;;;;;;4953445;28;20300;-29
2023/08/08 11:13:32;;;;;;;3.58;1.45;;;23.40;99.90;;;;;;4955008;28;20267;-29
2023/08/08 11:15:58;;;;;;;3.45;1.55;;;23.20;99.90;;;;;;4949955;28;20188;-29
2023/08/08 11:18:25;;;;;;;2.90;1.55;;;23.40;99.90;;;;;;4959222;28;20185;-30
2023/08/08 11:20:51;;;;;;;3.03;1.52;;;23.60;99.90;;;;;;4954307;28;20271;-29
2023/08/08 11:23:18;;;;;;;3.13;1.70;;;23.40;99.90;;;;;;4954634;28;20279;-29
2023/08/08 11:25:45;;;;;;;4.57;1.48;;;23.30;99.90;;;;;;4955138;28;20188;-29
2023/08/08 11:28:12;;;;;;;2.03;1.40;;;23.20;99.90;;;;;;4952730;28;20185;-29
2023/08/08 11:30:43;;;;;;;2.75;1.70;;;23.30;99.90;;;;;;4953256;28;20204;-30
2023/08/08 11:33:10;;;;;;;2.45;1.80;;;23.20;99.90;;;;;;4969590;28;20238;-29
2023/08/08 11:35:36;;;;;;;4.45;2.08;;;23.00;99.90;;;;;;4956775;28;20177;-29
2023/08/08 11:38:04;;;;;;;2.80;1.73;;;23.00;99.90;;;;;;4950326;28;20180;-29
2023/08/08 11:40:30;;;;;;;1.60;1.50;;;22.90;99.90;;;;;;4962205;28;20205;-29
2023/08/08 11:42:57;;;;;;;1.98;1.45;;;23.10;99.90;;;;;;4949395;28;20193;-29
2023/08/08 11:45:23;;;;;;;1.90;1.40;;;22.90;99.90;;;;;;4950589;28;20220;-29
2023/08/08 11:47:50;;;;;;;1.42;1.33;;;23.00;99.90;;;;;;4955293;28;20283;-29
2023/08/08 11:50:18;;;;;;;2.13;1.50;;;23.30;99.90;;;;;;4969431;28;20205;-29
2023/08/08 11:52:47;;;;;;;3.80;1.65;;;23.70;99.90;;;;;;4967109;28;20205;-29
2023/08/08 11:55:14;;;;;;;1.90;1.63;;;23.90;99.90;;;;;;4953609;28;20315;-29
2023/08/08 11:57:40;;;;;;;2.90;1.60;;;23.90;99.90;;;;;;4954601;28;20272;-29
2023/08/08 12:00:08;;;;;;;2.38;1.58;;;23.60;99.90;;;;;;4963152;28;20219;-28
2023/08/08 12:02:42;;;;;;;1.90;1.65;;;23.60;99.90;;;;;;4974113;28;20323;-29
2023/08/08 12:05:13;;;;;;;1.55;1.40;;;23.50;99.90;;;;;;4967382;28;20238;-29
2023/08/08 12:07:41;;;;;;;2.08;1.50;;;23.60;99.90;;;;;;4956363;28;20184;-29
2023/08/08 12:10:15;;;;;;;2.28;1.40;;;23.60;99.90;;;;;;4954821;28;20217;-29
2023/08/08 12:12:41;;;;;;;2.28;1.20;;;23.90;99.90;;;;;;4959237;28;20215;-29
2023/08/08 12:15:08;;;;;;;2.03;1.23;;;24.00;99.90;;;;;;4955685;28;20176;-29
2023/08/08 12:17:35;;;;;;;3.20;1.55;;;24.20;99.90;;;;;;4963997;28;20247;-29
2023/08/08 12:20:05;;;;;;;3.08;1.50;;;24.20;99.90;;;;;;4952822;28;20229;-30
2023/08/08 12:22:32;;;;;;;1.95;1.58;;;24.30;99.90;;;;;;4972702;28;20283;-30
2023/08/08 12:24:58;;;;;;;2.53;1.63;;;24.30;99.90;;;;;;4972465;28;20181;-29
2023/08/08 12:27:24;;;;;;;2.50;1.58;;;24.20;99.90;;;;;;4956285;28;20189;-30
2023/08/08 12:29:50;;;;;;;2.00;1.65;;;23.90;99.90;;;;;;4956261;28;20207;-29
2023/08/08 12:32:23;;;;;;;2.55;1.80;;;23.50;99.90;;;;;;4959195;28;20304;-29
2023/08/08 12:34:49;;;;;;;1.67;1.52;;;23.30;99.90;;;;;;4990422;28;20648;-29
2023/08/08 12:37:16;;;;;;;2.92;1.60;;;23.30;99.90;;;;;;4956444;28;20177;-29
2023/08/08 12:39:41;;;;;;;2.15;1.50;;;23.30;99.90;;;;;;4953879;28;20264;-30
2023/08/08 12:42:07;;;;;;;2.20;1.70;;;23.40;99.90;;;;;;4972302;28;20275;-30
2023/08/08 12:44:33;;;;;;;1.50;1.33;;;23.40;99.90;;;;;;4959484;28;20210;-29
2023/08/08 12:46:59;;;;;;;1.65;1.55;;;23.70;99.90;;;;;;4956870;28;20180;-29